createdAt,value
2023-02-17T00:00:14.128Z,115.50
2023-02-17T00:03:02.669Z,121.75
2023-02-17T00:05:30.891Z,125.00
2023-02-17T00:07:59.458Z,123.67
2023-02-17T00:10:27.649Z,117.75
2023-02-17T00:12:56.549Z,124.75
2023-02-17T00:15:24.769Z,129.00
2023-02-17T00:17:53.441Z,127.75
2023-02-17T00:20:21.679Z,124.50
2023-02-17T00:22:50.308Z,115.50
2023-02-17T00:25:18.629Z,122.25
2023-02-17T00:27:47.258Z,118.50
2023-02-17T00:30:15.539Z,122.00
2023-02-17T00:32:44.426Z,115.50
2023-02-17T00:35:14.394Z,122.00
2023-02-17T00:37:45.847Z,125.75
2023-02-17T00:40:15.153Z,123.00
2023-02-17T00:42:43.933Z,125.00
2023-02-17T00:45:12.277Z,128.75
2023-02-17T00:47:40.847Z,119.50
2023-02-17T00:50:11.347Z,121.50
2023-02-17T00:52:39.964Z,127.00
2023-02-17T00:55:09.322Z,123.75
2023-02-17T00:57:38.096Z,121.00
2023-02-17T01:00:06.995Z,127.00
2023-02-17T01:02:35.647Z,121.33
2023-02-17T01:05:04.275Z,118.67
2023-02-17T01:07:32.924Z,121.50
2023-02-17T01:10:01.338Z,122.25
2023-02-17T01:12:30.033Z,116.50
2023-02-17T01:14:59.708Z,122.00
2023-02-17T01:17:28.514Z,120.25
2023-02-17T01:19:58.176Z,129.00
2023-02-17T01:22:26.746Z,129.50
2023-02-17T01:24:56.643Z,122.75
2023-02-17T01:27:25.366Z,125.25
2023-02-17T01:29:56.109Z,127.25
2023-02-17T01:32:24.697Z,125.50
2023-02-17T01:34:52.941Z,125.00
2023-02-17T01:37:21.666Z,129.33
2023-02-17T01:39:49.886Z,129.00
2023-02-17T01:42:21.165Z,129.75
2023-02-17T01:45:17.872Z,129.25
2023-02-17T01:48:01.502Z,133.25
2023-02-17T01:50:33.980Z,126.67
2023-02-17T01:53:04.680Z,123.75
2023-02-17T01:55:33.873Z,128.00
2023-02-17T01:58:08.539Z,134.50
2023-02-17T02:00:37.551Z,124.00
2023-02-17T02:03:09.138Z,127.00
2023-02-17T02:05:39.168Z,123.50
2023-02-17T02:08:08.909Z,121.25
2023-02-17T02:10:37.391Z,126.50
2023-02-17T02:13:08.319Z,126.50
2023-02-17T02:16:07.572Z,125.25
2023-02-17T02:18:36.458Z,125.67
2023-02-17T02:21:21.879Z,127.75
2023-02-17T02:23:50.748Z,131.00
2023-02-17T02:26:43.602Z,124.50
2023-02-17T02:29:27.683Z,124.25
2023-02-17T02:32:27.974Z,126.33
2023-02-17T02:35:05.689Z,118.50
2023-02-17T02:37:43.067Z,127.00
2023-02-17T02:40:12.956Z,127.50
2023-02-17T02:42:41.957Z,130.00
2023-02-17T02:45:11.344Z,135.50
2023-02-17T02:47:52.322Z,127.50
2023-02-17T02:51:20.634Z,129.50
2023-02-17T02:54:24.257Z,128.50
2023-02-17T02:57:18.716Z,124.00
2023-02-17T03:00:06.556Z,127.25
2023-02-17T03:02:46.025Z,125.00
2023-02-17T03:05:25.043Z,130.33
2023-02-17T03:07:54.768Z,129.67
2023-02-17T03:10:23.205Z,126.75
2023-02-17T03:12:52.690Z,130.50
2023-02-17T03:15:28.666Z,130.50
2023-02-17T03:17:58.705Z,131.00
2023-02-17T03:20:30.697Z,132.00
2023-02-17T03:23:00.042Z,121.00
2023-02-17T03:25:29.863Z,125.25
2023-02-17T03:27:58.483Z,129.50
2023-02-17T03:30:26.924Z,127.25
2023-02-17T03:32:55.693Z,121.75
2023-02-17T03:35:23.959Z,132.50
2023-02-17T03:37:52.655Z,127.00
2023-02-17T03:40:20.901Z,130.25
2023-02-17T03:42:49.600Z,126.50
2023-02-17T03:45:17.981Z,133.50
2023-02-17T03:47:46.644Z,121.50
2023-02-17T03:50:15.033Z,128.50
2023-02-17T03:52:43.602Z,124.00
2023-02-17T03:55:11.884Z,129.25
2023-02-17T03:57:40.760Z,127.25
2023-02-17T04:00:09.876Z,125.75
2023-02-17T04:02:44.429Z,132.50
2023-02-17T04:05:12.831Z,127.50
2023-02-17T04:07:41.659Z,129.33
2023-02-17T04:10:10.272Z,128.00
2023-02-17T04:12:38.869Z,126.00
2023-02-17T04:15:07.437Z,127.67
2023-02-17T04:17:39.045Z,128.50
2023-02-17T04:20:08.085Z,132.00
2023-02-17T04:22:36.668Z,130.00
2023-02-17T04:25:05.079Z,129.75
2023-02-17T04:27:33.662Z,130.75
2023-02-17T04:30:02.055Z,133.50
2023-02-17T04:32:30.767Z,124.00
2023-02-17T04:34:58.971Z,130.00
2023-02-17T04:37:27.560Z,124.75
2023-02-17T04:39:55.889Z,129.75
2023-02-17T04:42:24.679Z,123.25
2023-02-17T04:44:53.086Z,123.00
2023-02-17T04:47:21.868Z,118.75
2023-02-17T04:49:50.192Z,126.00
2023-02-17T04:52:18.948Z,123.75
2023-02-17T04:54:47.418Z,126.50
2023-02-17T04:57:16.261Z,120.25
2023-02-17T04:59:45.229Z,131.25
2023-02-17T05:02:13.889Z,123.75
2023-02-17T05:04:43.933Z,123.75
2023-02-17T05:07:13.706Z,124.00
2023-02-17T05:09:42.149Z,120.50
2023-02-17T05:12:10.818Z,118.67
2023-02-17T05:14:39.187Z,113.33
2023-02-17T05:17:08.079Z,112.00
2023-02-17T05:19:36.568Z,114.25
2023-02-17T05:22:05.316Z,112.75
2023-02-17T05:24:34.020Z,112.50
2023-02-17T05:27:03.081Z,104.50
2023-02-17T05:29:31.418Z,100.00
2023-02-17T05:32:00.133Z,103.00
2023-02-17T05:34:28.569Z,96.00
2023-02-17T05:36:57.328Z,98.00
2023-02-17T05:39:25.749Z,91.75
2023-02-17T05:41:56.598Z,94.25
2023-02-17T05:44:25.061Z,80.00
2023-02-17T05:46:53.821Z,87.00
2023-02-17T05:49:22.182Z,82.25
2023-02-17T05:51:51.317Z,79.33
2023-02-17T05:54:19.784Z,80.33
2023-02-17T05:56:48.511Z,79.00
2023-02-17T05:59:17.131Z,77.00
2023-02-17T06:01:45.820Z,79.25
2023-02-17T06:04:14.259Z,76.25
2023-02-17T06:06:43.053Z,79.25
2023-02-17T06:09:11.571Z,71.00
2023-02-17T06:11:40.363Z,73.00
2023-02-17T06:14:08.814Z,71.25
2023-02-17T06:16:37.732Z,68.50
2023-02-17T06:19:06.150Z,70.25
2023-02-17T06:21:35.121Z,70.75
2023-02-17T06:24:03.642Z,73.00
2023-02-17T06:26:32.481Z,69.75
2023-02-17T06:29:00.861Z,64.00
2023-02-17T06:31:30.300Z,62.50
2023-02-17T06:33:58.698Z,68.00
2023-02-17T06:36:27.488Z,65.00
2023-02-17T06:38:55.878Z,69.25
2023-02-17T06:41:24.527Z,63.50
2023-02-17T06:43:52.890Z,68.50
2023-02-17T06:46:21.667Z,62.67
2023-02-17T06:48:50.058Z,66.25
2023-02-17T06:51:18.768Z,61.50
2023-02-17T06:53:47.239Z,58.50
2023-02-17T06:56:16.125Z,65.00
2023-02-17T06:58:44.614Z,60.25
2023-02-17T07:01:19.406Z,61.00
2023-02-17T07:03:48.002Z,62.00
2023-02-17T07:06:16.720Z,60.00
2023-02-17T07:08:45.165Z,62.75
2023-02-17T07:11:14.892Z,62.50
2023-02-17T07:13:44.154Z,61.00
2023-02-17T07:16:14.607Z,55.75
2023-02-17T07:18:43.099Z,59.00
2023-02-17T07:21:12.096Z,61.75
2023-02-17T07:23:40.542Z,55.25
2023-02-17T07:26:11.731Z,58.75
2023-02-17T07:28:41.104Z,57.25
2023-02-17T07:31:16.558Z,58.33
2023-02-17T07:33:48.585Z,55.00
2023-02-17T07:36:18.220Z,54.00
2023-02-17T07:38:46.631Z,57.50
2023-02-17T07:41:18.076Z,56.00
2023-02-17T07:43:47.978Z,55.50
2023-02-17T07:46:18.861Z,59.50
2023-02-17T07:48:47.677Z,55.75
2023-02-17T07:51:19.936Z,57.75
2023-02-17T07:53:50.256Z,58.67
2023-02-17T07:56:21.785Z,56.33
2023-02-17T07:58:50.519Z,71.00
2023-02-17T08:01:22.171Z,64.00
2023-02-17T08:03:51.818Z,62.50
2023-02-17T08:06:24.585Z,63.00
2023-02-17T08:09:12.491Z,66.33
2023-02-17T08:12:01.117Z,64.00
2023-02-17T08:14:32.192Z,70.25
2023-02-17T08:17:01.023Z,73.50
2023-02-17T08:19:39.708Z,71.50
2023-02-17T08:22:16.171Z,69.50
2023-02-17T08:24:44.690Z,72.50
2023-02-17T08:27:15.546Z,73.00
2023-02-17T08:29:44.800Z,76.25
2023-02-17T08:32:15.822Z,76.33
2023-02-17T08:34:44.253Z,75.33
2023-02-17T08:37:13.205Z,76.50
2023-02-17T08:39:41.763Z,76.00
2023-02-17T08:42:11.805Z,79.75
2023-02-17T08:44:40.279Z,79.75
2023-02-17T08:47:10.800Z,80.50
2023-02-17T08:49:39.046Z,84.00
2023-02-17T08:52:07.829Z,86.75
2023-02-17T08:54:38.044Z,87.75
2023-02-17T08:57:06.700Z,93.00
2023-02-17T08:59:34.942Z,90.25
2023-02-17T09:02:04.113Z,95.00
2023-02-17T09:04:32.415Z,90.25
2023-02-17T09:07:01.432Z,94.25
2023-02-17T09:09:29.979Z,91.67
2023-02-17T09:11:59.238Z,98.00
2023-02-17T09:14:27.966Z,99.75
2023-02-17T09:16:57.122Z,99.00
2023-02-17T09:19:26.342Z,98.25
2023-02-17T09:21:56.036Z,98.33
2023-02-17T09:24:25.601Z,105.50
2023-02-17T09:26:54.428Z,105.50
2023-02-17T09:29:22.653Z,102.75
2023-02-17T09:31:51.310Z,104.75
2023-02-17T09:34:19.605Z,106.00
2023-02-17T09:36:50.374Z,106.00
2023-02-17T09:39:18.926Z,100.33
2023-02-17T09:41:52.495Z,107.50
2023-02-17T09:44:23.489Z,111.50
2023-02-17T09:47:03.126Z,106.75
2023-02-17T09:49:45.218Z,112.00
2023-02-17T09:52:31.884Z,108.00
2023-02-17T09:55:04.438Z,112.75
2023-02-17T09:57:37.846Z,109.50
2023-02-17T10:00:18.143Z,120.50
2023-02-17T10:03:17.517Z,113.00
2023-02-17T10:06:06.583Z,111.75
2023-02-17T10:08:55.478Z,119.50
2023-02-17T10:11:40.306Z,117.00
2023-02-17T10:14:22.170Z,110.25
2023-02-17T10:16:57.705Z,115.75
2023-02-17T10:19:31.138Z,118.00
2023-02-17T10:22:07.626Z,113.00
2023-02-17T10:24:36.283Z,116.25
2023-02-17T10:27:38.273Z,123.25
2023-02-17T10:30:25.501Z,124.75
2023-02-17T10:33:14.882Z,113.75
2023-02-17T10:36:14.065Z,121.75
2023-02-17T10:38:51.122Z,122.00
2023-02-17T10:41:33.768Z,125.50
2023-02-17T10:44:03.728Z,123.50
2023-02-17T10:46:32.799Z,127.50
2023-02-17T10:49:01.735Z,130.50
2023-02-17T10:51:31.482Z,127.75
2023-02-17T10:54:22.578Z,131.50
2023-02-17T10:56:54.248Z,124.00
2023-02-17T10:59:40.870Z,125.00
2023-02-17T11:02:31.250Z,120.00
2023-02-17T11:05:00.246Z,133.75
2023-02-17T11:07:42.180Z,126.00
2023-02-17T11:10:31.714Z,128.50
2023-02-17T11:13:02.751Z,130.67
2023-02-17T11:15:44.760Z,124.75
2023-02-17T11:18:26.088Z,123.67
2023-02-17T11:21:06.139Z,121.00
2023-02-17T11:23:35.576Z,131.00
2023-02-17T11:26:18.355Z,121.00
2023-02-17T11:28:46.859Z,129.00
2023-02-17T11:31:30.163Z,122.67
2023-02-17T11:33:58.790Z,125.75
2023-02-17T11:36:29.673Z,121.75
2023-02-17T11:38:59.862Z,122.50
2023-02-17T11:41:28.102Z,122.00
2023-02-17T11:44:00.374Z,122.00
2023-02-17T11:46:41.440Z,121.75
2023-02-17T11:49:19.087Z,122.25
2023-02-17T11:51:53.737Z,118.00
2023-02-17T11:54:31.791Z,114.25
2023-02-17T11:57:26.177Z,123.00
2023-02-17T12:00:28.557Z,128.75
2023-02-17T12:03:18.652Z,131.00
2023-02-17T12:06:07.198Z,124.00
2023-02-17T12:09:23.174Z,128.00
2023-02-17T12:12:25.724Z,126.33
2023-02-17T12:14:58.876Z,132.50
2023-02-17T12:17:29.985Z,126.50
2023-02-17T12:20:09.645Z,127.00
2023-02-17T12:23:05.248Z,133.00
2023-02-17T12:25:45.191Z,127.25
2023-02-17T12:28:35.418Z,130.00
2023-02-17T12:31:37.087Z,126.75
2023-02-17T12:34:26.184Z,121.75
2023-02-17T12:36:56.396Z,129.50
2023-02-17T12:39:31.425Z,125.75
2023-02-17T12:42:01.647Z,119.75
2023-02-17T12:44:39.189Z,127.33
2023-02-17T12:47:15.097Z,116.25
2023-02-17T12:49:53.860Z,119.25
2023-02-17T12:52:39.931Z,127.33
2023-02-17T12:55:20.921Z,114.75
2023-02-17T12:58:00.822Z,112.50
2023-02-17T13:00:47.018Z,119.25
2023-02-17T13:03:16.957Z,110.75
2023-02-17T13:06:03.516Z,110.75
2023-02-17T13:08:39.435Z,106.25
2023-02-17T13:11:14.573Z,107.75
2023-02-17T13:13:43.225Z,106.75
2023-02-17T13:16:14.316Z,102.00
2023-02-17T13:18:46.009Z,98.75
2023-02-17T13:21:25.512Z,95.00
2023-02-17T13:24:01.493Z,98.00
2023-02-17T13:26:33.593Z,92.00
2023-02-17T13:29:21.756Z,93.25
2023-02-17T13:32:02.638Z,89.00
2023-02-17T13:34:37.864Z,90.33
2023-02-17T13:37:28.522Z,89.00
2023-02-17T13:39:57.086Z,86.00
2023-02-17T13:42:37.429Z,89.50
2023-02-17T13:45:29.847Z,85.33
2023-02-17T13:48:01.241Z,82.75
2023-02-17T13:50:34.307Z,81.00
2023-02-17T13:53:20.780Z,80.50
2023-02-17T13:55:49.508Z,71.25
2023-02-17T13:58:28.255Z,68.00
2023-02-17T14:00:58.057Z,65.25
2023-02-17T14:03:36.307Z,63.50
2023-02-17T14:06:05.277Z,47.50
2023-02-17T14:08:40.375Z,40.75
2023-02-17T14:11:14.342Z,38.75
2023-02-17T14:13:46.110Z,36.25
2023-02-17T14:16:36.526Z,34.25
2023-02-17T14:19:14.525Z,33.67
2023-02-17T14:21:56.798Z,34.50
2023-02-17T14:24:35.966Z,35.75
2023-02-17T14:27:14.393Z,35.00
2023-02-17T14:29:48.277Z,34.50
2023-02-17T14:32:32.767Z,36.25
2023-02-17T14:35:13.922Z,39.25
2023-02-17T14:37:43.032Z,38.50
2023-02-17T14:40:21.089Z,37.50
2023-02-17T14:42:50.070Z,40.50
2023-02-17T14:45:19.724Z,40.00
2023-02-17T14:47:48.409Z,41.25
2023-02-17T14:50:17.737Z,45.50
2023-02-17T14:52:48.650Z,45.00
2023-02-17T14:55:24.484Z,44.25
2023-02-17T14:57:52.971Z,45.50
2023-02-17T15:00:22.151Z,46.25
2023-02-17T15:02:52.001Z,45.25
2023-02-17T15:05:21.343Z,44.00
2023-02-17T15:07:50.253Z,47.67
2023-02-17T15:10:30.518Z,46.33
2023-02-17T15:12:59.061Z,45.75
2023-02-17T15:15:27.920Z,45.50
2023-02-17T15:17:56.423Z,45.00
2023-02-17T15:20:25.301Z,45.00
2023-02-17T15:22:55.371Z,46.25
2023-02-17T15:25:24.571Z,47.67
2023-02-17T15:27:53.251Z,48.00
2023-02-17T15:30:23.091Z,50.00
2023-02-17T15:32:51.575Z,47.75
2023-02-17T15:35:23.517Z,45.75
2023-02-17T15:37:52.876Z,47.50
2023-02-17T15:40:24.667Z,47.00
2023-02-17T15:43:01.339Z,44.00
2023-02-17T15:45:31.256Z,45.50
2023-02-17T15:48:05.551Z,43.00
2023-02-17T15:50:34.500Z,43.75
2023-02-17T15:53:03.526Z,42.25
2023-02-17T15:55:33.962Z,44.00
2023-02-17T15:58:04.391Z,44.50
2023-02-17T16:00:35.539Z,43.50
2023-02-17T16:03:04.881Z,41.67
2023-02-17T16:05:33.885Z,43.25
2023-02-17T16:08:02.387Z,39.75
2023-02-17T16:10:32.797Z,42.75
2023-02-17T16:13:02.101Z,42.00
2023-02-17T16:15:33.100Z,44.25
2023-02-17T16:18:01.676Z,40.75
2023-02-17T16:20:35.334Z,41.33
2023-02-17T16:23:03.932Z,42.50
2023-02-17T16:25:32.789Z,42.00
2023-02-17T16:28:01.426Z,40.50
2023-02-17T16:30:32.024Z,42.00
2023-02-17T16:33:01.426Z,37.75
2023-02-17T16:35:32.505Z,40.50
2023-02-17T16:38:06.485Z,37.50
2023-02-17T16:40:37.234Z,39.50
2023-02-17T16:43:05.628Z,39.75
2023-02-17T16:45:34.616Z,35.75
2023-02-17T16:48:02.998Z,35.25
2023-02-17T16:50:34.736Z,38.25
2023-02-17T16:53:09.079Z,38.00
2023-02-17T16:55:37.766Z,37.00
2023-02-17T16:58:14.758Z,35.50
2023-02-17T17:00:44.008Z,35.25
2023-02-17T17:03:12.473Z,35.75
2023-02-17T17:05:43.066Z,38.25
2023-02-17T17:08:19.442Z,34.25
2023-02-17T17:10:51.196Z,36.75
2023-02-17T17:13:19.545Z,36.50
2023-02-17T17:15:48.410Z,34.00
2023-02-17T17:18:21.920Z,34.50
2023-02-17T17:20:50.954Z,36.75
2023-02-17T17:23:19.401Z,33.00
2023-02-17T17:25:48.854Z,37.50
2023-02-17T17:28:19.315Z,35.00
2023-02-17T17:30:48.770Z,37.00
2023-02-17T17:33:17.456Z,36.00
2023-02-17T17:35:46.213Z,34.00
2023-02-17T17:38:19.725Z,39.50
2023-02-17T17:40:57.134Z,35.50
2023-02-17T17:43:25.520Z,38.00
2023-02-17T17:45:55.130Z,39.00
2023-02-17T17:48:23.482Z,38.75
2023-02-17T17:50:52.227Z,40.50
2023-02-17T17:53:20.579Z,40.25
2023-02-17T17:55:49.188Z,39.00
2023-02-17T17:58:17.668Z,41.25
2023-02-17T18:00:46.436Z,43.67
2023-02-17T18:03:14.835Z,42.00
2023-02-17T18:05:43.588Z,46.50
2023-02-17T18:08:13.388Z,46.50
2023-02-17T18:10:42.953Z,50.50
2023-02-17T18:13:12.873Z,45.00
2023-02-17T18:15:42.345Z,45.00
2023-02-17T18:18:12.346Z,47.25
2023-02-17T18:20:41.117Z,47.00
2023-02-17T18:23:09.428Z,51.25
2023-02-17T18:25:38.438Z,52.50
2023-02-17T18:28:06.806Z,54.00
2023-02-17T18:30:35.791Z,54.50
2023-02-17T18:33:04.138Z,60.50
2023-02-17T18:35:38.816Z,60.00
2023-02-17T18:38:07.074Z,63.75
2023-02-17T18:40:39.566Z,63.67
2023-02-17T18:43:08.584Z,66.50
2023-02-17T18:45:37.531Z,66.00
2023-02-17T18:48:06.122Z,68.00
2023-02-17T18:50:35.225Z,69.75
2023-02-17T18:53:05.375Z,70.75
2023-02-17T18:55:37.771Z,67.25
2023-02-17T18:58:06.108Z,70.50
2023-02-17T19:00:34.910Z,72.75
2023-02-17T19:03:03.173Z,74.50
2023-02-17T19:05:31.887Z,72.67
2023-02-17T19:08:00.143Z,74.67
2023-02-17T19:10:28.787Z,78.00
2023-02-17T19:12:57.040Z,80.25
2023-02-17T19:15:27.180Z,76.00
2023-02-17T19:17:57.781Z,82.25
2023-02-17T19:20:27.835Z,75.00
2023-02-17T19:22:56.310Z,82.00
2023-02-17T19:25:25.498Z,87.00
2023-02-17T19:27:53.904Z,78.25
2023-02-17T19:30:22.674Z,82.33
2023-02-17T19:32:51.030Z,85.25
2023-02-17T19:35:19.597Z,80.75
2023-02-17T19:37:47.869Z,81.00
2023-02-17T19:40:16.601Z,86.50
2023-02-17T19:42:44.882Z,86.75
2023-02-17T19:45:13.552Z,86.00
2023-02-17T19:47:41.844Z,90.00
2023-02-17T19:50:10.771Z,90.00
2023-02-17T19:52:39.102Z,88.75
2023-02-17T19:55:09.992Z,88.00
2023-02-17T19:57:38.419Z,85.00
2023-02-17T20:00:08.426Z,89.50
2023-02-17T20:02:37.060Z,98.25
2023-02-17T20:05:06.248Z,84.33
2023-02-17T20:07:34.785Z,89.75
2023-02-17T20:10:06.072Z,91.50
2023-02-17T20:12:34.375Z,89.75
2023-02-17T20:15:03.006Z,91.50
2023-02-17T20:17:31.564Z,94.75
2023-02-17T20:20:00.204Z,92.33
2023-02-17T20:22:28.646Z,92.00
2023-02-17T20:24:58.225Z,96.00
2023-02-17T20:27:26.565Z,93.25
2023-02-17T20:29:55.467Z,93.50
2023-02-17T20:32:23.918Z,93.00
2023-02-17T20:34:52.843Z,102.50
2023-02-17T20:37:21.186Z,89.75
2023-02-17T20:39:49.820Z,99.50
2023-02-17T20:42:18.148Z,98.25
2023-02-17T20:44:50.684Z,103.00
2023-02-17T20:47:19.029Z,100.75
2023-02-17T20:49:47.826Z,102.75
2023-02-17T20:52:16.040Z,98.75
2023-02-17T20:54:45.197Z,107.00
2023-02-17T20:57:15.359Z,107.25
2023-02-17T20:59:44.006Z,100.50
2023-02-17T21:02:12.216Z,103.75
2023-02-17T21:04:41.149Z,107.50
2023-02-17T21:07:10.928Z,105.25
2023-02-17T21:09:39.599Z,108.75
2023-02-17T21:12:08.118Z,108.25
2023-02-17T21:14:36.787Z,112.00
2023-02-17T21:17:04.997Z,112.75
2023-02-17T21:19:33.559Z,110.00
2023-02-17T21:22:01.716Z,111.50
2023-02-17T21:24:30.217Z,114.50
2023-02-17T21:26:58.436Z,113.50
2023-02-17T21:29:27.024Z,115.00
2023-02-17T21:31:55.178Z,116.75
2023-02-17T21:34:23.983Z,112.00
2023-02-17T21:36:52.228Z,113.00
2023-02-17T21:39:21.645Z,111.50
2023-02-17T21:41:50.483Z,111.25
2023-02-17T21:44:37.312Z,102.75
2023-02-17T21:47:05.554Z,111.00
2023-02-17T21:49:34.044Z,105.33
2023-02-17T21:52:02.202Z,114.00
2023-02-17T21:54:30.717Z,115.50
2023-02-17T21:56:58.986Z,112.75
2023-02-17T21:59:27.663Z,108.67
2023-02-17T22:01:55.772Z,115.50
2023-02-17T22:04:26.662Z,109.50
2023-02-17T22:06:54.773Z,113.00
2023-02-17T22:09:23.329Z,114.00
2023-02-17T22:11:51.369Z,113.50
2023-02-17T22:14:21.444Z,116.50
2023-02-17T22:16:50.032Z,119.00
2023-02-17T22:19:21.172Z,114.75
2023-02-17T22:21:51.103Z,108.50
2023-02-17T22:24:22.869Z,113.33
2023-02-17T22:26:51.128Z,113.50
2023-02-17T22:29:19.544Z,115.00
2023-02-17T22:31:48.139Z,118.33
2023-02-17T22:34:16.633Z,122.25
2023-02-17T22:36:44.806Z,114.00
2023-02-17T22:39:13.278Z,121.75
2023-02-17T22:41:41.516Z,119.33
2023-02-17T22:44:10.023Z,106.75
2023-02-17T22:46:38.619Z,121.00
2023-02-17T22:49:07.271Z,120.00
2023-02-17T22:51:39.353Z,116.75
2023-02-17T22:54:08.498Z,115.75
2023-02-17T22:56:36.668Z,117.33
2023-02-17T22:59:05.942Z,124.50
2023-02-17T23:01:35.539Z,121.50
2023-02-17T23:04:06.414Z,124.00
2023-02-17T23:06:37.488Z,116.00
2023-02-17T23:09:08.742Z,122.50
2023-02-17T23:11:51.053Z,127.67
2023-02-17T23:14:23.995Z,123.33
2023-02-17T23:16:53.643Z,118.00
2023-02-17T23:19:23.515Z,127.00
2023-02-17T23:21:55.076Z,116.00
2023-02-17T23:24:25.167Z,113.25
2023-02-17T23:26:55.041Z,120.00
2023-02-17T23:29:23.996Z,115.75
2023-02-17T23:31:52.676Z,112.00
2023-02-17T23:34:21.124Z,106.25
2023-02-17T23:36:49.476Z,113.00
2023-02-17T23:39:17.935Z,112.75
2023-02-17T23:41:46.276Z,114.50
2023-02-17T23:44:15.356Z,106.50
2023-02-17T23:46:44.674Z,107.50
2023-02-17T23:49:17.732Z,102.75
2023-02-17T23:51:47.821Z,105.00
2023-02-17T23:54:16.376Z,106.75
2023-02-17T23:56:45.638Z,100.50
2023-02-17T23:59:14.169Z,95.25
